Time;durP1;ratioP1;P1;durP2;ratioP2;P2;SDS_P1;SDS_P2;PMS_P1;PMS_P2;Temp;Humidity;BMP_temperature;BMP_pressure;BME280_temperature;BME280_humidity;BME280_pressure;Samples;Min_cycle;Max_cycle;Signal;HPM_P1;HPM_P2
2023/03/06 00:00:59;;;;;;;39.40;24.52;;;;;;;5.97;73.72;100593.03;4915499;29;20567;-73
2023/03/06 00:03:27;;;;;;;35.03;21.88;;;;;;;5.91;73.84;100607.03;4914255;29;20047;-73
2023/03/06 00:05:56;;;;;;;35.78;22.80;;;;;;;5.56;75.37;100595.22;4918912;29;20056;-72
2023/03/06 00:08:25;;;;;;;38.38;24.75;;;;;;;5.40;76.61;100598.34;4921728;29;20060;-72
2023/03/06 00:10:53;;;;;;;36.35;23.50;;;;;;;5.76;75.47;100597.00;4919722;29;20048;-72
2023/03/06 00:13:21;;;;;;;36.40;23.50;;;;;;;5.44;76.84;100596.69;4920717;29;20071;-72
2023/03/06 00:15:48;;;;;;;36.20;23.77;;;;;;;5.32;75.98;100593.44;4921248;29;20064;-73
2023/03/06 00:18:15;;;;;;;38.83;23.50;;;;;;;5.42;75.90;100590.69;4940100;29;20055;-72
2023/03/06 00:20:43;;;;;;;36.05;22.52;;;;;;;5.50;74.05;100592.81;4919334;29;20075;-71
2023/03/06 00:23:11;;;;;;;32.80;20.83;;;;;;;5.25;73.84;100591.03;4921577;29;20515;-73
2023/03/06 00:25:41;;;;;;;33.45;22.42;;;;;;;5.05;74.88;100590.31;4917904;29;20055;-71
2023/03/06 00:28:11;;;;;;;36.10;21.95;;;;;;;5.11;75.20;100583.75;4903044;29;20072;-72
2023/03/06 00:30:38;;;;;;;37.28;22.38;;;;;;;5.27;74.39;100583.38;4902983;29;20598;-72
2023/03/06 00:33:06;;;;;;;33.92;22.02;;;;;;;5.46;73.52;100576.16;4907714;29;20059;-72
2023/03/06 00:35:34;;;;;;;32.95;22.13;;;;;;;5.51;73.50;100573.41;4919548;29;20060;-72
2023/03/06 00:38:03;;;;;;;31.67;22.25;;;;;;;5.67;72.38;100572.19;4922487;29;20058;-72
2023/03/06 00:40:32;;;;;;;34.20;22.00;;;;;;;5.53;73.07;100565.75;4921335;29;20051;-72
2023/03/06 00:42:59;;;;;;;33.90;22.13;;;;;;;5.42;72.66;100564.16;4939954;29;20415;-73
2023/03/06 00:45:27;;;;;;;34.22;22.77;;;;;;;5.02;74.31;100564.41;4910732;29;20052;-72
2023/03/06 00:47:54;;;;;;;36.15;23.15;;;;;;;5.04;74.73;100555.94;4939610;29;20059;-71
2023/03/06 00:50:21;;;;;;;34.97;22.73;;;;;;;5.23;74.34;100557.72;4921959;29;20059;-71
2023/03/06 00:52:49;;;;;;;37.50;22.92;;;;;;;5.25;74.14;100554.72;4922142;29;20051;-71
2023/03/06 00:55:16;;;;;;;34.90;22.38;;;;;;;5.43;73.68;100559.53;4920666;29;20044;-71
2023/03/06 00:57:43;;;;;;;38.03;22.88;;;;;;;5.58;72.91;100559.41;4918665;29;20056;-71
2023/03/06 01:00:11;;;;;;;35.67;23.17;;;;;;;5.35;72.73;100562.88;4920628;29;20380;-72
2023/03/06 01:02:40;;;;;;;32.65;22.25;;;;;;;5.66;72.90;100567.03;4936762;29;20048;-72
2023/03/06 01:05:08;;;;;;;35.28;21.83;;;;;;;5.59;72.43;100572.00;4939755;29;20056;-72
2023/03/06 01:07:36;;;;;;;34.70;22.10;;;;;;;5.49;72.32;100569.34;4923304;29;20052;-72
2023/03/06 01:10:06;;;;;;;36.60;23.10;;;;;;;5.57;72.02;100568.72;4919491;29;20420;-73
2023/03/06 01:12:34;;;;;;;38.45;22.83;;;;;;;5.34;73.79;100567.50;4934430;29;20051;-71
2023/03/06 01:15:02;;;;;;;36.53;23.05;;;;;;;5.43;73.18;100570.44;4922889;29;20058;-74
2023/03/06 01:17:30;;;;;;;38.72;23.55;;;;;;;5.50;73.81;100565.50;4921649;29;20066;-73
2023/03/06 01:19:57;;;;;;;34.65;22.70;;;;;;;5.46;73.91;100567.16;4939217;29;20071;-72
2023/03/06 01:22:25;;;;;;;35.47;22.80;;;;;;;5.69;73.57;100552.78;4938240;29;20415;-73
2023/03/06 01:24:52;;;;;;;39.90;23.27;;;;;;;5.78;72.66;100556.53;4938468;29;20066;-72
2023/03/06 01:27:20;;;;;;;37.78;24.00;;;;;;;5.59;73.24;100559.16;4921238;29;20407;-72
2023/03/06 01:29:48;;;;;;;40.15;24.17;;;;;;;5.59;73.82;100561.06;4939464;29;20059;-73
2023/03/06 01:32:15;;;;;;;40.45;25.15;;;;;;;5.62;73.45;100558.56;4930444;29;20043;-71
2023/03/06 01:34:43;;;;;;;41.75;25.52;;;;;;;5.38;74.90;100554.09;4938808;29;20075;-72
2023/03/06 01:37:10;;;;;;;41.38;24.15;;;;;;;5.13;74.29;100554.25;4908805;29;20074;-71
2023/03/06 01:39:38;;;;;;;42.58;23.52;;;;;;;4.96;74.93;100549.16;4920003;29;20056;-71
2023/03/06 01:42:05;;;;;;;38.05;23.92;;;;;;;4.93;75.21;100548.91;4918889;29;20424;-72
2023/03/06 01:44:33;;;;;;;39.35;22.60;;;;;;;4.62;75.80;100545.47;4902542;29;20059;-72
2023/03/06 01:47:01;;;;;;;38.05;22.27;;;;;;;4.54;75.23;100544.16;4933509;29;20071;-71
2023/03/06 01:49:34;;;;;;;37.63;22.38;;;;;;;4.84;75.54;100536.94;4939295;29;20051;-72
2023/03/06 01:52:14;;;;;;;39.25;22.02;;;;;;;5.07;74.23;100534.38;4918356;29;20074;-72
2023/03/06 01:54:44;;;;;;;40.58;22.13;;;;;;;4.93;72.66;100535.25;4939263;29;20062;-72
2023/03/06 01:57:16;;;;;;;34.22;21.45;;;;;;;5.10;72.73;100536.53;4937708;29;20051;-71
2023/03/06 01:59:47;;;;;;;38.20;22.30;;;;;;;4.86;72.41;100543.75;4939200;29;20058;-72
2023/03/06 02:02:15;;;;;;;35.03;20.73;;;;;;;4.95;72.16;100539.31;4905436;29;20043;-72
2023/03/06 02:04:43;;;;;;;36.03;21.15;;;;;;;5.02;72.12;100520.72;4939092;29;20055;-72
2023/03/06 02:07:11;;;;;;;35.65;21.42;;;;;;;5.03;71.62;100532.47;4938073;29;20059;-72
2023/03/06 02:09:38;;;;;;;38.20;21.92;;;;;;;4.85;72.38;100524.91;4906399;29;20059;-72
2023/03/06 02:12:14;;;;;;;40.45;22.75;;;;;;;4.99;72.68;100528.66;4934866;29;20168;-73
2023/03/06 02:14:42;;;;;;;46.28;23.58;;;;;;;5.08;73.09;100522.34;4937999;29;20150;-72
2023/03/06 02:17:12;;;;;;;35.75;21.40;;;;;;;5.18;72.43;100516.00;4906531;29;20063;-71
2023/03/06 02:20:02;;;;;;;35.83;21.98;;;;;;;5.25;71.46;100513.75;4919680;29;20060;-72
2023/03/06 02:22:59;;;;;;;34.95;21.98;;;;;;;5.20;70.80;100513.78;4915176;29;20508;-72
2023/03/06 02:25:30;;;;;;;37.90;22.35;;;;;;;5.28;70.89;100511.28;4902748;29;20052;-73
2023/03/06 02:28:00;;;;;;;37.92;22.70;;;;;;;4.91;72.58;100500.06;4922171;29;20059;-72
2023/03/06 02:30:30;;;;;;;39.20;23.60;;;;;;;5.29;71.33;100502.00;4916414;29;20063;-71
2023/03/06 02:32:57;;;;;;;36.08;21.63;;;;;;;5.56;70.57;100494.13;4904308;29;20059;-71
2023/03/06 02:35:29;;;;;;;36.00;22.75;;;;;;;5.49;70.10;100498.31;4903583;29;20052;-73
2023/03/06 02:37:58;;;;;;;37.33;21.75;;;;;;;5.14;70.92;100493.09;4923221;29;20094;-73
2023/03/06 02:40:25;;;;;;;37.95;21.30;;;;;;;5.01;69.55;100496.44;4902114;29;20044;-72
2023/03/06 02:42:57;;;;;;;39.63;22.10;;;;;;;4.95;69.96;100492.13;4919087;29;20063;-71
2023/03/06 02:45:41;;;;;;;38.35;21.85;;;;;;;4.83;70.63;100483.47;4901890;29;20048;-73
2023/03/06 02:48:08;;;;;;;36.08;21.05;;;;;;;4.95;71.49;100486.66;4920255;29;20059;-75
2023/03/06 02:50:36;;;;;;;40.33;22.38;;;;;;;5.17;70.81;100478.88;4920247;29;20052;-72
2023/03/06 02:53:04;;;;;;;42.20;23.30;;;;;;;5.53;69.63;100472.03;4923204;29;20412;-72
2023/03/06 02:55:32;;;;;;;35.55;19.83;;;;;;;5.42;67.39;100484.16;4922486;29;20040;-71
2023/03/06 02:58:00;;;;;;;36.78;21.50;;;;;;;4.95;69.16;100473.81;4940638;29;20067;-71
2023/03/06 03:00:29;;;;;;;37.72;21.88;;;;;;;5.02;69.71;100459.88;4940011;29;20060;-72
2023/03/06 03:02:56;;;;;;;33.78;20.13;;;;;;;5.22;69.53;100459.72;4941444;29;20047;-71
2023/03/06 03:05:25;;;;;;;38.90;21.70;;;;;;;5.39;68.83;100455.50;4938337;29;20056;-71
2023/03/06 03:07:58;;;;;;;35.85;20.83;;;;;;;5.65;67.75;100450.63;4905512;29;20060;-71
2023/03/06 03:10:27;;;;;;;36.10;21.98;;;;;;;5.73;67.06;100452.75;4922128;29;20055;-71
2023/03/06 03:12:54;;;;;;;35.28;21.42;;;;;;;5.64;67.44;100449.81;4939901;29;20147;-71
2023/03/06 03:15:24;;;;;;;36.60;21.23;;;;;;;5.80;66.84;100445.03;4940234;29;20067;-71
2023/03/06 03:17:51;;;;;;;35.15;21.50;;;;;;;5.72;66.99;100443.72;4923866;29;20067;-71
2023/03/06 03:20:20;;;;;;;37.90;22.02;;;;;;;5.61;67.90;100449.59;4923019;29;20051;-67
2023/03/06 03:22:50;;;;;;;38.45;23.00;;;;;;;5.73;67.34;100450.84;4923987;29;20043;-68
2023/03/06 03:25:18;;;;;;;36.30;21.80;;;;;;;5.79;67.06;100456.25;4932435;29;20493;-67
2023/03/06 03:27:46;;;;;;;37.08;22.52;;;;;;;5.28;69.37;100459.41;4920410;29;20427;-67
2023/03/06 03:30:14;;;;;;;37.58;22.63;;;;;;;5.27;69.74;100462.41;4905442;29;20060;-67
2023/03/06 03:32:42;;;;;;;39.63;22.80;;;;;;;5.16;70.79;100458.94;4912303;29;20067;-67
2023/03/06 03:35:11;;;;;;;44.30;24.17;;;;;;;5.38;70.61;100450.31;4924476;29;20054;-67
2023/03/06 03:37:43;;;;;;;41.45;24.33;;;;;;;5.56;70.07;100444.97;4939524;29;20152;-67
2023/03/06 03:40:12;;;;;;;38.10;22.80;;;;;;;5.18;71.13;100451.28;4940489;29;20051;-68
2023/03/06 03:42:39;;;;;;;41.78;24.42;;;;;;;4.96;72.15;100442.72;4939813;29;20056;-67
2023/03/06 03:45:10;;;;;;;39.80;22.95;;;;;;;5.50;71.64;100440.66;4910644;29;20512;-67
2023/03/06 03:47:39;;;;;;;45.28;24.30;;;;;;;5.23;70.65;100450.47;4938695;29;20471;-66
2023/03/06 03:50:07;;;;;;;40.92;25.40;;;;;;;4.69;73.53;100441.53;4940333;29;20048;-67
2023/03/06 03:52:36;;;;;;;44.67;24.17;;;;;;;5.13;72.24;100439.59;4922288;29;20086;-67
2023/03/06 03:55:04;;;;;;;42.22;24.50;;;;;;;4.87;73.26;100446.31;4892961;29;20051;-69
2023/03/06 03:57:32;;;;;;;45.83;24.92;;;;;;;4.92;73.35;100438.09;4921934;29;20515;-67
2023/03/06 04:00:00;;;;;;;46.42;24.73;;;;;;;4.93;72.60;100439.75;4920828;29;20055;-67
2023/03/06 04:02:40;;;;;;;41.72;25.02;;;;;;;4.92;73.40;100443.56;4935999;29;20055;-67
2023/03/06 04:05:23;;;;;;;45.45;25.42;;;;;;;4.88;73.50;100437.06;4909305;29;20055;-68
2023/03/06 04:07:50;;;;;;;47.72;23.88;;;;;;;4.84;73.55;100436.78;4940379;29;20067;-66
2023/03/06 04:10:18;;;;;;;46.78;24.42;;;;;;;4.77;74.07;100433.56;4939362;29;20062;-66
2023/03/06 04:12:49;;;;;;;42.13;24.92;;;;;;;4.95;74.30;100426.63;4907224;29;20503;-67
2023/03/06 04:15:17;;;;;;;41.80;23.60;;;;;;;4.97;73.89;100427.16;4923624;29;20052;-67
2023/03/06 04:17:46;;;;;;;40.47;23.80;;;;;;;4.83;73.65;100432.41;4922685;29;20059;-66
2023/03/06 04:20:17;;;;;;;42.88;24.77;;;;;;;4.95;74.51;100430.16;4916814;29;20060;-68
2023/03/06 04:22:46;;;;;;;41.33;25.83;;;;;;;4.92;73.67;100427.19;4915571;29;20053;-67
2023/03/06 04:25:13;;;;;;;46.67;25.55;;;;;;;4.90;74.67;100421.22;4901189;29;20053;-67
2023/03/06 04:27:41;;;;;;;42.35;23.85;;;;;;;5.00;73.73;100423.88;4884931;29;20057;-66
2023/03/06 04:30:10;;;;;;;43.85;25.13;;;;;;;4.57;75.21;100414.56;4882788;29;20061;-67
2023/03/06 04:32:40;;;;;;;43.67;24.63;;;;;;;4.49;76.04;100413.28;4889746;29;20061;-67
2023/03/06 04:35:11;;;;;;;41.05;23.35;;;;;;;4.58;76.23;100411.56;4883520;29;20049;-67
2023/03/06 04:37:49;;;;;;;45.53;25.05;;;;;;;4.82;75.55;100417.16;4894724;29;20178;-66
2023/03/06 04:40:28;;;;;;;41.45;24.13;;;;;;;4.90;74.68;100413.81;4881049;29;20057;-68
2023/03/06 04:42:57;;;;;;;47.70;24.35;;;;;;;4.89;75.03;100414.09;4883148;29;20493;-67
2023/03/06 04:45:26;;;;;;;46.57;25.50;;;;;;;5.00;74.60;100415.69;4881751;29;20055;-67
2023/03/06 04:47:54;;;;;;;44.20;24.05;;;;;;;5.03;73.88;100406.91;4894304;29;20654;-67
2023/03/06 04:50:22;;;;;;;38.00;23.05;;;;;;;5.24;73.30;100411.13;4866192;29;20057;-67
2023/03/06 04:52:50;;;;;;;39.92;24.38;;;;;;;5.34;73.00;100406.38;4896416;29;20053;-68
2023/03/06 04:55:18;;;;;;;44.47;24.10;;;;;;;5.49;71.99;100410.91;4883117;29;20053;-68
2023/03/06 04:57:46;;;;;;;41.42;24.85;;;;;;;5.52;72.45;100411.16;4914859;29;20048;-67
2023/03/06 05:00:18;;;;;;;41.28;25.13;;;;;;;5.68;71.46;100401.69;4902108;29;20052;-67
2023/03/06 05:02:45;;;;;;;45.42;23.52;;;;;;;5.71;71.01;100392.91;4900610;29;20056;-67
2023/03/06 05:05:14;;;;;;;39.78;23.80;;;;;;;5.44;71.36;100397.31;4901590;29;20057;-66
2023/03/06 05:07:41;;;;;;;44.92;25.17;;;;;;;5.33;72.45;100406.69;4899431;29;20048;-67
2023/03/06 05:10:14;;;;;;;40.05;25.00;;;;;;;5.63;72.16;100403.66;4900437;29;20068;-68
2023/03/06 05:12:41;;;;;;;41.47;24.67;;;;;;;5.36;72.28;100406.09;4882363;29;20060;-68
2023/03/06 05:15:10;;;;;;;44.13;24.60;;;;;;;5.31;72.87;100398.78;4883247;29;20083;-68
2023/03/06 05:17:37;;;;;;;45.33;25.27;;;;;;;5.51;72.48;100408.69;4880712;29;20053;-67
2023/03/06 05:20:08;;;;;;;44.40;24.92;;;;;;;5.44;72.78;100406.28;4901833;29;20065;-68
2023/03/06 05:22:35;;;;;;;47.38;25.95;;;;;;;5.40;72.44;100397.06;4918443;29;20060;-67
2023/03/06 05:25:04;;;;;;;41.28;23.08;;;;;;;5.35;72.72;100407.22;4920071;29;20420;-68
2023/03/06 05:27:31;;;;;;;41.53;24.40;;;;;;;5.12;73.44;100403.31;4934903;29;20052;-68
2023/03/06 05:29:58;;;;;;;47.15;25.77;;;;;;;5.12;74.14;100407.94;4922861;29;20060;-68
2023/03/06 05:32:26;;;;;;;40.88;25.20;;;;;;;5.01;73.53;100398.19;4931320;29;20056;-68
2023/03/06 05:34:54;;;;;;;45.00;25.33;;;;;;;5.07;73.46;100392.44;4920075;29;20063;-67
2023/03/06 05:37:22;;;;;;;44.92;24.92;;;;;;;5.12;74.03;100395.13;4935403;29;20051;-66
2023/03/06 05:39:49;;;;;;;37.92;22.98;;;;;;;5.30;73.39;100401.78;4923760;29;20051;-71
2023/03/06 05:42:17;;;;;;;42.38;24.73;;;;;;;5.30;72.61;100399.84;4938046;29;20399;-72
2023/03/06 05:44:45;;;;;;;43.38;24.67;;;;;;;5.11;72.81;100398.94;4931878;29;20059;-72
2023/03/06 05:47:13;;;;;;;41.92;24.05;;;;;;;5.49;72.13;100392.56;4919119;29;20060;-72
2023/03/06 05:49:40;;;;;;;42.30;23.17;;;;;;;5.36;71.16;100395.16;4920274;29;20071;-72
2023/03/06 05:52:07;;;;;;;41.97;22.73;;;;;;;5.04;71.24;100378.53;4917881;29;20060;-72
2023/03/06 05:54:36;;;;;;;43.47;23.92;;;;;;;5.30;71.17;100382.69;4919065;29;20598;-73
2023/03/06 05:57:04;;;;;;;43.15;22.23;;;;;;;5.35;70.80;100391.63;4917532;29;20059;-72
2023/03/06 05:59:32;;;;;;;40.55;22.00;;;;;;;5.41;70.67;100385.03;4920335;29;20052;-71
2023/03/06 06:01:59;;;;;;;42.10;21.60;;;;;;;5.28;70.09;100376.69;4918664;29;20055;-72
2023/03/06 06:04:27;;;;;;;37.47;22.27;;;;;;;5.59;69.69;100367.91;4919851;29;20396;-72
2023/03/06 06:06:56;;;;;;;40.45;22.48;;;;;;;5.53;69.40;100344.47;4931366;29;20052;-72
2023/03/06 06:09:24;;;;;;;36.45;22.10;;;;;;;5.82;68.39;100346.34;4939367;29;20056;-72
2023/03/06 06:11:54;;;;;;;35.75;21.20;;;;;;;5.58;68.66;100351.78;4893949;29;20064;-71
2023/03/06 06:14:22;;;;;;;;;;;;;;;5.58;69.26;100355.34;4903898;29;20056;-72
2023/03/06 06:16:50;;;;;;;40.75;22.73;;;;;;;5.58;69.40;100357.25;4918523;29;19927;-71
2023/03/06 06:19:19;;;;;;;44.33;22.90;;;;;;;5.84;68.49;100346.91;4919911;29;20063;-71
2023/03/06 06:21:48;;;;;;;37.08;22.25;;;;;;;5.81;68.70;100344.69;4918531;29;20060;-74
2023/03/06 06:24:18;;;;;;;38.15;22.77;;;;;;;5.84;67.88;100344.97;4924085;29;20688;-71
2023/03/06 06:26:46;;;;;;;35.58;20.85;;;;;;;5.83;68.08;100348.00;4922492;29;20056;-72
2023/03/06 06:29:13;;;;;;;40.03;22.00;;;;;;;5.85;68.35;100360.28;4922721;29;20048;-72
2023/03/06 06:31:41;;;;;;;35.03;21.25;;;;;;;5.75;68.40;100361.16;4930881;29;20487;-72
2023/03/06 06:34:10;;;;;;;37.90;21.90;;;;;;;5.85;67.48;100362.19;4924187;29;20055;-73
2023/03/06 06:36:38;;;;;;;40.70;22.38;;;;;;;5.62;67.62;100361.88;4930470;29;20058;-72
2023/03/06 06:39:06;;;;;;;38.28;20.45;;;;;;;5.60;67.40;100365.97;4943044;29;20063;-72
2023/03/06 06:41:34;;;;;;;38.83;22.67;;;;;;;5.88;67.35;100361.59;4941586;29;20059;-73
2023/03/06 06:44:22;;;;;;;34.90;20.23;;;;;;;5.75;67.22;100374.81;4939074;29;20052;-72
2023/03/06 06:46:49;;;;;;;45.63;22.08;;;;;;;5.43;68.01;100374.63;4932244;29;20047;-73
2023/03/06 06:49:36;;;;;;;34.75;21.10;;;;;;;5.44;68.64;100381.72;4928484;29;20051;-72
2023/03/06 06:52:05;;;;;;;40.10;21.75;;;;;;;5.58;68.12;100390.03;4941218;29;20047;-73
2023/03/06 06:54:35;;;;;;;36.47;21.30;;;;;;;5.41;68.48;100387.75;4922570;29;20066;-74
2023/03/06 06:57:03;;;;;;;39.60;20.08;;;;;;;5.48;68.98;100390.97;4913353;29;20519;-74
2023/03/06 06:59:30;;;;;;;37.78;21.25;;;;;;;5.28;69.30;100395.81;4923880;29;20044;-73
2023/03/06 07:01:57;;;;;;;38.78;20.52;;;;;;;5.50;68.82;100396.97;4922366;29;20048;-72
2023/03/06 07:04:25;;;;;;;38.63;21.35;;;;;;;5.01;70.06;100398.19;4923125;29;20099;-73
2023/03/06 07:06:54;;;;;;;39.25;22.40;;;;;;;5.19;70.32;100392.06;4921832;29;20052;-73
2023/03/06 07:09:22;;;;;;;38.13;21.17;;;;;;;5.24;70.67;100398.28;4906741;29;20044;-73
2023/03/06 07:11:50;;;;;;;35.00;20.15;;;;;;;5.18;70.08;100395.88;4932314;29;20066;-73
2023/03/06 07:14:17;;;;;;;35.42;21.48;;;;;;;5.19;70.00;100398.34;4927889;29;20157;-72
2023/03/06 07:16:44;;;;;;;37.55;21.27;;;;;;;5.10;70.17;100399.22;4917670;29;20060;-72
2023/03/06 07:19:12;;;;;;;35.45;20.02;;;;;;;5.16;70.71;100396.16;4903680;29;20060;-74
2023/03/06 07:21:39;;;;;;;38.15;21.58;;;;;;;5.06;70.93;100395.41;4926121;29;20063;-74
2023/03/06 07:24:07;;;;;;;35.63;20.38;;;;;;;5.27;71.02;100396.88;4923825;29;20059;-72
2023/03/06 07:26:34;;;;;;;34.83;19.20;;;;;;;5.28;70.59;100393.06;4927952;29;20068;-73
2023/03/06 07:29:04;;;;;;;38.63;21.08;;;;;;;5.29;70.54;100394.69;4924825;29;20055;-71
2023/03/06 07:31:34;;;;;;;34.72;20.02;;;;;;;5.41;70.71;100400.59;4922950;29;20504;-73
2023/03/06 07:34:01;;;;;;;36.72;20.83;;;;;;;5.54;69.65;100395.25;4921199;29;20052;-76
2023/03/06 07:36:32;;;;;;;38.00;19.02;;;;;;;5.95;69.28;100394.88;4901457;29;20063;-76
2023/03/06 07:39:00;;;;;;;41.85;22.02;;;;;;;5.81;68.89;100391.97;4908359;29;20055;-76
2023/03/06 07:41:27;;;;;;;38.20;19.90;;;;;;;6.01;68.90;100391.81;4920330;29;20064;-76
2023/03/06 07:43:54;;;;;;;33.60;18.25;;;;;;;6.07;68.58;100393.34;4918252;29;20497;-78
2023/03/06 07:46:22;;;;;;;35.13;19.90;;;;;;;5.94;68.03;100387.78;4917943;29;20060;-80
2023/03/06 07:48:49;;;;;;;35.15;18.88;;;;;;;6.05;68.56;100392.81;4914574;29;20052;-79
2023/03/06 07:51:19;;;;;;;24.33;15.48;;;;;;;6.60;74.31;100389.41;4905590;29;20052;-77
2023/03/06 07:53:47;;;;;;;29.77;16.48;;;;;;;7.40;68.64;100383.75;4921462;29;20052;-78
2023/03/06 07:56:15;;;;;;;38.88;16.58;;;;;;;8.12;66.26;100388.41;4920228;29;20159;-75
2023/03/06 07:58:44;;;;;;;30.42;17.15;;;;;;;7.74;62.71;100387.75;4919194;29;20047;-75
2023/03/06 08:01:14;;;;;;;29.07;17.30;;;;;;;6.93;64.25;100382.06;4902382;29;20059;-72
2023/03/06 08:03:42;;;;;;;28.25;18.17;;;;;;;6.67;65.20;100383.53;4900537;29;20167;-74
2023/03/06 08:06:12;;;;;;;31.73;18.13;;;;;;;6.54;65.58;100395.22;4919912;29;20557;-75
2023/03/06 08:08:40;;;;;;;;;;;;;;;6.31;67.33;100390.63;4905061;29;20431;-75
2023/03/06 08:11:09;;;;;;;32.85;17.75;;;;;;;6.33;67.14;100386.47;4908956;29;19930;-74
2023/03/06 08:13:37;;;;;;;31.95;19.00;;;;;;;6.34;66.75;100385.38;4919941;29;20500;-74
2023/03/06 08:16:05;;;;;;;30.75;18.50;;;;;;;6.34;67.38;100392.75;4916199;29;20055;-75
2023/03/06 08:18:33;;;;;;;35.55;17.55;;;;;;;6.42;67.38;100395.66;4909223;29;20053;-76
2023/03/06 08:21:05;;;;;;;28.52;18.13;;;;;;;6.30;67.43;100398.00;4902333;29;20051;-75
2023/03/06 08:23:33;;;;;;;29.60;18.08;;;;;;;6.30;68.20;100398.00;4921901;29;20052;-75
2023/03/06 08:26:04;;;;;;;30.30;17.90;;;;;;;6.21;68.64;100407.94;4918469;29;20400;-70
2023/03/06 08:28:32;;;;;;;34.78;18.58;;;;;;;6.35;68.63;100387.00;4920619;29;20063;-74
2023/03/06 08:31:07;;;;;;;31.02;18.83;;;;;;;6.72;67.58;100408.91;4915234;29;20056;-74
2023/03/06 08:33:35;;;;;;;31.60;17.80;;;;;;;6.93;66.50;100403.13;4921481;29;20495;-75
2023/03/06 08:36:03;;;;;;;32.85;18.23;;;;;;;7.19;66.07;100413.41;4917239;29;20062;-74
2023/03/06 08:38:31;;;;;;;30.13;18.40;;;;;;;7.09;65.95;100410.84;4919908;29;20055;-74
2023/03/06 08:40:58;;;;;;;38.97;18.42;;;;;;;7.27;65.81;100412.72;4902887;29;20151;-73
2023/03/06 08:43:25;;;;;;;29.42;18.60;;;;;;;7.15;65.17;100425.25;4918302;29;20056;-76
2023/03/06 08:45:55;;;;;;;29.20;18.65;;;;;;;7.25;64.84;100416.88;4913083;29;20070;-76
2023/03/06 08:48:22;;;;;;;33.75;19.00;;;;;;;7.35;64.20;100413.97;4912382;29;20063;-76
2023/03/06 08:50:50;;;;;;;32.08;18.85;;;;;;;7.03;65.42;100412.00;4900096;29;20628;-74
2023/03/06 08:53:17;;;;;;;33.75;18.58;;;;;;;7.01;66.11;100416.16;4902060;29;20063;-75
2023/03/06 08:55:45;;;;;;;30.00;17.67;;;;;;;6.91;65.24;100414.38;4919667;29;20051;-74
2023/03/06 08:58:13;;;;;;;34.10;19.13;;;;;;;6.21;68.19;100421.63;4901945;29;20428;-73
2023/03/06 09:00:40;;;;;;;34.58;19.13;;;;;;;6.43;68.23;100421.09;4914959;29;20063;-71
2023/03/06 09:03:08;;;;;;;31.02;18.30;;;;;;;6.65;67.43;100421.34;4915804;29;20059;-73
2023/03/06 09:05:35;;;;;;;31.98;19.45;;;;;;;6.38;67.62;100419.22;4888047;29;20067;-74
2023/03/06 09:08:03;;;;;;;31.25;19.38;;;;;;;6.40;67.95;100425.22;4917283;29;20496;-73
2023/03/06 09:10:31;;;;;;;36.45;19.48;;;;;;;6.42;68.33;100425.75;4913750;29;20052;-73
2023/03/06 09:12:58;;;;;;;34.05;19.40;;;;;;;6.36;67.90;100420.63;4926562;29;20056;-73
2023/03/06 09:15:26;;;;;;;29.48;17.95;;;;;;;6.25;68.36;100427.31;4916511;29;20052;-74
2023/03/06 09:17:53;;;;;;;38.92;18.80;;;;;;;6.37;69.04;100420.34;4919022;29;20052;-73
2023/03/06 09:20:21;;;;;;;31.38;17.75;;;;;;;6.30;68.68;100425.34;4913744;29;20067;-74
2023/03/06 09:22:48;;;;;;;32.25;18.35;;;;;;;6.47;68.27;100430.31;4901298;29;20048;-74
2023/03/06 09:25:21;;;;;;;34.67;18.08;;;;;;;6.62;67.73;100432.88;4918801;29;20427;-73
2023/03/06 09:27:49;;;;;;;37.88;18.40;;;;;;;6.54;67.82;100428.88;4898175;29;20063;-71
2023/03/06 09:30:35;;;;;;;33.53;18.10;;;;;;;6.90;67.55;100431.94;4914779;29;20091;-72
2023/03/06 09:33:02;;;;;;;30.60;17.13;;;;;;;7.16;66.06;100430.44;4919222;29;20162;-74
2023/03/06 09:35:30;;;;;;;34.85;18.38;;;;;;;7.04;66.11;100432.81;4901280;29;20060;-74
2023/03/06 09:37:57;;;;;;;29.05;18.00;;;;;;;6.88;66.33;100434.16;4901693;29;20055;-76
2023/03/06 09:40:50;;;;;;;30.55;18.67;;;;;;;6.56;67.62;100426.66;4921913;29;20060;-75
2023/03/06 09:43:21;;;;;;;29.50;18.52;;;;;;;6.82;67.61;100438.06;4918003;29;20052;-70
2023/03/06 09:45:48;;;;;;;29.05;18.63;;;;;;;6.74;67.52;100436.81;4915441;29;20145;-72
2023/03/06 09:48:16;;;;;;;29.77;19.67;;;;;;;6.66;67.51;100436.63;4917593;29;20052;-70
2023/03/06 09:50:50;;;;;;;32.58;20.45;;;;;;;6.31;68.74;100429.69;4916550;29;20071;-72
2023/03/06 09:53:37;;;;;;;32.35;19.95;;;;;;;6.71;68.73;100434.66;4920649;29;20377;-71
2023/03/06 09:56:15;;;;;;;32.80;19.50;;;;;;;6.91;67.44;100430.81;4914985;29;20555;-73
2023/03/06 09:58:47;;;;;;;31.58;18.42;;;;;;;6.98;66.62;100430.44;4918987;29;20048;-71
2023/03/06 10:01:18;;;;;;;40.13;19.77;;;;;;;6.79;67.11;100427.72;4885549;29;20155;-71
2023/03/06 10:03:57;;;;;;;31.80;20.13;;;;;;;7.18;66.66;100432.88;4916266;29;20052;-70
2023/03/06 10:06:35;;;;;;;37.75;19.52;;;;;;;7.24;65.26;100426.19;4917133;29;20407;-75
2023/03/06 10:09:12;;;;;;;35.90;19.38;;;;;;;7.21;63.60;100429.53;4919750;29;20044;-71
2023/03/06 10:11:51;;;;;;;30.25;19.00;;;;;;;7.18;64.51;100424.66;4905209;29;20059;-76
2023/03/06 10:14:28;;;;;;;29.13;19.77;;;;;;;7.18;63.94;100425.47;4898979;29;20048;-74
2023/03/06 10:16:57;;;;;;;29.15;17.73;;;;;;;7.32;64.07;100423.59;4917899;29;20048;-70
2023/03/06 10:19:35;;;;;;;29.67;18.30;;;;;;;7.05;63.16;100426.22;4902663;29;20508;-74
2023/03/06 10:22:02;;;;;;;36.05;18.67;;;;;;;7.17;63.90;100412.88;4901178;29;20052;-73
2023/03/06 10:24:50;;;;;;;27.80;17.65;;;;;;;7.38;63.05;100414.19;4897069;29;20072;-73
2023/03/06 10:27:33;;;;;;;29.33;18.38;;;;;;;7.54;62.81;100414.72;4911474;29;20432;-74
2023/03/06 10:30:32;;;;;;;30.52;17.42;;;;;;;7.49;61.04;100414.81;4920595;29;20510;-73
2023/03/06 10:33:28;;;;;;;28.23;14.90;;;;;;;7.55;60.04;100403.47;4901082;29;20507;-74
2023/03/06 10:35:56;;;;;;;22.38;16.23;;;;;;;7.87;60.12;100408.91;4918266;29;20863;-75
2023/03/06 10:38:30;;;;;;;24.23;16.83;;;;;;;8.27;59.75;100406.50;4908735;29;20052;-74
2023/03/06 10:41:13;;;;;;;18.40;11.38;;;;;;;7.04;53.47;100410.91;4928850;29;20051;-76
2023/03/06 10:43:42;;;;;;;18.15;11.68;;;;;;;6.87;55.03;100407.06;4922995;29;20059;-75
2023/03/06 10:46:13;;;;;;;18.90;12.27;;;;;;;6.66;55.41;100404.63;4917194;29;20147;-75
2023/03/06 10:48:41;;;;;;;22.75;13.10;;;;;;;7.11;55.77;100402.31;4915520;29;20079;-72
2023/03/06 10:51:16;;;;;;;20.63;12.15;;;;;;;7.79;54.82;100406.06;4892117;29;20381;-74
2023/03/06 10:53:56;;;;;;;25.10;13.32;;;;;;;7.78;55.05;100396.19;4899968;29;20059;-75
2023/03/06 10:56:33;;;;;;;21.80;13.88;;;;;;;8.29;55.33;100407.03;4917878;29;20059;-76
2023/03/06 10:59:24;;;;;;;20.92;14.18;;;;;;;7.95;54.90;100405.47;4899738;29;20044;-75
2023/03/06 11:01:56;;;;;;;24.75;14.63;;;;;;;7.78;56.53;100409.91;4916053;29;20052;-74
2023/03/06 11:04:32;;;;;;;29.50;17.58;;;;;;;7.31;58.23;100396.50;4901717;29;20052;-74
2023/03/06 11:07:10;;;;;;;24.15;14.20;;;;;;;7.65;57.56;100388.78;4900779;29;20056;-74
2023/03/06 11:09:38;;;;;;;23.60;14.88;;;;;;;7.95;55.86;100388.19;4921748;29;20048;-75
2023/03/06 11:12:26;;;;;;;21.15;13.05;;;;;;;8.02;55.10;100396.81;4922985;29;20052;-76
2023/03/06 11:15:09;;;;;;;19.58;11.93;;;;;;;8.19;53.42;100388.81;4917308;29;20075;-74
2023/03/06 11:17:47;;;;;;;17.50;11.48;;;;;;;7.68;50.98;100385.44;4892677;29;20060;-74
2023/03/06 11:20:25;;;;;;;18.92;12.05;;;;;;;7.38;51.73;100377.75;4915137;29;20067;-73
2023/03/06 11:23:12;;;;;;;19.88;11.27;;;;;;;7.19;52.22;100385.19;4899196;29;20055;-75
2023/03/06 11:25:42;;;;;;;16.67;11.30;;;;;;;7.55;52.65;100381.53;4919617;29;20052;-74
2023/03/06 11:28:39;;;;;;;20.05;10.93;;;;;;;7.76;51.11;100371.00;4903600;29;20067;-73
2023/03/06 11:31:14;;;;;;;17.67;11.32;;;;;;;7.31;52.04;100386.34;4915330;29;20421;-73